Ana Sayfa
METAR-TAF:

METAR-TAF

Havaalanları :

Kazvin, İran

Enlem: 36-15N, Boylam: 050-00E, yükseklik: 1278 m

Güncel hava durumu gözlemi

Rapor saat 10:00 UTC de 34 dakika önce yapıldı.
Rüzgar doğu/kuzeydoğudan 6 kt
Sıcaklık 5°C
Nem 60%
Basınç 1017 hPa
Görüş mesafesi: 5000 m
4000 ft yükseklikte az bulutlu
11000 ft yükseklikte parçalı çok bulutlu
Toz Pusu

METAR: OIIK 291000Z 06006KT 5000 HZ FEW040 BKN110 05/M02 Q1017

Saat: 14:04 (10:34 UTC)


TAF: eksik

4.000'den fazla havaalanı için hava durumu gözlemleri ve tahminleri (METAR ve TAF raporları).

Kullanılabilir istasyonlar harita üzerinde sarı ve kırmızı noktalarla gösterilir.

İstasyonun adını görmek için fareyi noktanın üzerinde gezdirin.

Sonrasında hava gözlem ve tahminlerini görmek için tıklayın.

Haritayı değiştirmek için: yaklaştırmak için siyah artı işaretli yeşil düğmeye ve uzaklaştırmak için de eksi işaretli düğmeye hızla tıklayın; bitişik haritalar için yeşil okları kullanın.


METAR-TAF: